Latest Coastal Weather Observations for Cape Nelson

IDS60701

Issued at 3:02 pm CDT Sunday 1 March 2015 (issued every 10 minutes, with the page automatically refreshed every 10 minutes)

About coastal observations | Map of coastal stations | Coastal observations for SA | Marine services | Other Formats
Station Details ID: 090184 Name: CAPE NELSON LIGHTHOUSE Lat: -38.43 Lon: 141.54 Height: 45.4 m
Data from the previous 72 hours. | See also: Recent months at Cape Nelson
Date/Time
CDT
Temp

°C
Wind Pressure Rain
since 9am
mm
Weather Cloud Vis
km
Sea
Height
m
Swell
Dir
 
Speed
knots
Gust
knots
hPa Trend Height
m
Period
s
Dir
01/03:00pm 17.5 S 14 19 1017.8 - 0.0 - - - - - - -
01/02:30pm 17.9 S 13 19 1018.1 - 0.0 - - - - - - -
01/02:00pm 17.5 S 16 20 1017.6 - 0.0 - - - - - - -
01/01:30pm 17.3 S 14 22 1017.6 - 0.0 - - - - - - -
01/01:00pm 17.4 S 14 18 1017.3 - 0.0 - - - - - - -
01/12:30pm 16.8 S 14 19 1017.1 - 0.0 - - - - - - -
01/12:00pm 16.5 S 15 19 1017.1 - 0.0 - - - - - - -
01/11:30am 16.1 S 12 16 1017.0 - 0.0 - - - - - - -
01/11:00am 15.3 S 17 22 1016.5 - 0.0 - - - - - - -
01/10:30am 16.8 S 14 19 1015.7 - 0.0 - - - - - - -
01/10:00am 17.0 S 14 21 1015.3 - 0.0 - - - - - - -
01/09:30am 15.8 S 16 22 1014.9 - 0.0 - - - - - - -
01/09:00am 16.5 S 12 16 1014.2 - 0.0 - - - - - - -
01/08:30am 15.6 S 13 17 1013.5 - 2.2 Recent precip. - - - - - -
01/08:00am 15.5 S 14 19 1013.0 - 2.2 - - - - - - -
01/07:30am 15.4 S 10 23 1012.4 - 2.0 - - - - - - -
01/07:00am 15.1 S 16 23 1011.9 - 1.8 - - - - - - -
01/06:30am 16.2 S 9 16 1011.0 - 1.8 - - - - - - -
01/06:00am 16.1 S 11 14 1010.5 - 1.8 - - - - - - -
01/05:30am 15.9 S 9 13 1010.1 - 1.8 - - - - - - -
01/05:00am 15.9 S 12 15 1009.7 - 1.8 - - - - - - -
01/04:30am 16.2 SSE 10 17 1009.3 - 1.8 - - - - - - -
01/04:00am 16.0 SSE 5 9 1009.0 - 1.8 - - - - - - -
01/03:30am 15.9 ESE 8 16 1009.0 - 1.8 - - - - - - -
01/03:00am 15.6 NNE 7 11 1008.6 - 1.8 - - - - - - -
01/02:30am 16.6 NNW 6 13 1008.5 - 1.8 - - - - - - -
01/02:00am 16.1 NE 5 8 1008.6 - 1.8 - - - - - - -
01/01:30am 16.2 NE 5 9 1008.6 - 1.8 - - - - - - -
01/01:00am 16.2 NNE 6 11 1008.5 - 1.8 - - - - - - -
01/12:30am 15.9 NNE 7 10 1008.3 - 1.8 - - - - - - -
01/12:00am 16.1 E 6 11 1008.1 - 1.8 - - - - - - -
 
Date/Time
CDT
Temp

°C
Wind Pressure Rain
since 9am
mm
Weather Cloud Vis
km
Sea
Height
m
Swell
Dir
 
Speed
knots
Gust
knots
hPa Trend Height
m
Period
s
Dir
28/11:30pm 16.4 ENE 8 13 1008.2 - 1.8 - - - - - - -
28/11:00pm 16.4 NE 9 13 1008.1 - 1.8 - - - - - - -
28/10:30pm 16.5 NNW 9 14 1008.1 - 1.8 - - - - - - -
28/10:00pm 16.6 NNE 10 14 1007.8 - 1.8 - - - - - - -
28/09:30pm 16.4 ENE 8 15 1007.7 - 1.8 - - - - - - -
28/09:00pm 16.2 NE 10 14 1006.9 - 1.8 - - - - - - -
28/08:30pm 16.3 NE 9 15 1006.4 - 1.8 Recent precip. - - - - - -
28/08:00pm 16.5 NNE 10 14 1005.9 - 1.6 - - - - - - -
28/07:30pm 16.7 NNE 10 16 1005.4 - 1.6 - - - - - - -
28/07:00pm 17.0 N 10 17 1005.0 - 1.6 - - - - - - -
28/06:30pm 17.7 NW 12 21 1004.2 - 1.6 - - - - - - -
28/06:00pm 17.7 WNW 10 16 1004.0 - 1.6 - - - - - - -
28/05:30pm 17.8 W 15 20 1004.3 - 1.2 Rain - - - - - -
28/05:21pm 17.9 NW 12 20 1004.1 - 0.6 - - - - - - -
28/05:00pm 19.0 NE 9 13 1002.1 - 0.2 - - - - - - -
28/04:30pm 20.0 NW 9 16 1002.1 - 0.2 - - - - - - -
28/04:00pm 19.9 W 12 16 1002.3 - 0.2 - - - - - - -
28/03:30pm 19.4 W 14 18 1002.6 - 0.2 - - - - - - -
28/03:00pm 21.4 WNW 8 13 1002.7 - 0.2 - - - - - - -
28/02:30pm 21.2 W 11 16 1002.8 - 0.2 - - - - - - -
28/02:00pm 21.1 W 11 16 1002.8 - 0.2 - - - - - - -
28/01:30pm 22.9 WNW 8 13 1002.9 - 0.2 - - - - - - -
28/01:00pm 22.6 W 7 11 1002.7 - 0.2 - - - - - - -
28/12:30pm 26.3 NNW 11 18 1002.5 - 0.2 - - - - - - -
28/12:00pm 26.3 N 10 13 1002.6 - 0.0 - - - - - - -
28/11:30am 26.3 N 11 16 1003.0 - 0.0 - - - - - - -
28/11:00am 23.0 NNW 10 15 1003.3 - 0.0 - - - - - - -
28/10:30am 22.3 N 12 17 1003.3 - 0.0 - - - - - - -
28/10:00am 21.3 N 13 19 1003.4 - 0.0 - - - - - - -
28/09:30am 21.3 N 13 19 1003.4 - 0.0 - - - - - - -
28/09:00am 21.7 N 12 19 1003.5 - 0.0 - - - - - - -
28/08:30am 20.8 N 14 21 1003.4 - 1.0 - - - - - - -
28/08:00am 20.4 N 17 24 1003.1 - 1.0 - - - - - - -
28/07:34am 20.5 N 16 27 1002.9 - 1.0 - - - - - - -
28/07:30am 20.4 N 16 24 1002.8 - 1.0 - - - - - - -
28/07:00am 20.3 N 15 22 1003.0 - 1.0 - - - - - - -
28/06:30am 20.1 N 15 23 1002.8 - 1.0 - - - - - - -
28/06:00am 19.8 N 13 20 1002.8 - 1.0 - - - - - - -
28/05:30am 18.0 NNW 11 15 1003.1 - 1.0 - - - - - - -
28/05:00am 17.3 NNW 12 18 1003.4 - 1.0 - - - - - - -
28/04:30am 16.8 NNE 11 17 1003.3 - 1.0 - - - - - - -
28/04:00am 16.5 NNE 13 18 1003.4 - 1.0 - - - - - - -
28/03:30am 16.5 NE 13 17 1004.3 - 1.0 - - - - - - -
28/03:00am 16.2 NE 13 16 1004.8 - 1.0 - - - - - - -
28/02:30am 15.9 NE 10 13 1005.4 - 1.0 - - - - - - -
28/02:00am 15.8 NE 12 15 1005.9 - 1.0 - - - - - - -
28/01:30am 15.7 NE 12 16 1006.6 - 1.0 - - - - - - -
28/01:00am 15.8 NE 12 16 1007.5 - 1.0 - - - - - - -
28/12:30am 15.9 NE 8 12 1008.4 - 1.0 - - - - - - -
28/12:00am 16.1 NE 10 14 1008.9 - 1.0 - - - - - - -
 
Date/Time
CDT
Temp

°C
Wind Pressure Rain
since 9am
mm
Weather Cloud Vis
km
Sea
Height
m
Swell
Dir
 
Speed
knots
Gust
knots
hPa Trend Height
m
Period
s
Dir
27/11:30pm 15.9 NE 8 11 1009.3 - 1.0 - - - - - - -
27/11:00pm 15.9 NE 7 10 1010.1 - 1.0 - - - - - - -
27/10:30pm 15.9 ENE 11 15 1009.9 - 1.0 - - - - - - -
27/10:00pm 15.8 ENE 10 13 1010.3 - 1.0 - - - - - - -
27/09:30pm 15.6 E 8 11 1010.5 - 1.0 - - - - - - -
27/09:00pm 15.6 ENE 9 11 1010.4 - 1.0 - - - - - - -
27/08:30pm 15.6 E 8 11 1010.5 - 1.0 Recent precip. - - - - - -
27/08:00pm 15.5 E 7 10 1010.6 - 1.0 - - - - - - -
27/07:30pm 15.7 E 6 9 1010.5 - 0.6 - - - - - - -
27/07:00pm 15.9 E 6 8 1010.4 - 0.4 - - - - - - -
27/06:30pm 16.5 E 7 8 1010.2 - 0.0 - - - - - - -
27/06:00pm 17.1 SE 6 8 1010.3 - 0.0 - - - - - - -
27/05:30pm 17.0 SSE 8 9 1010.5 - 0.0 - - - - - - -
27/05:00pm 17.3 SE 5 8 1010.4 - 0.0 - - - - - - -
27/04:30pm 17.5 ESE 6 8 1010.0 - 0.0 - - - - - - -
27/04:00pm 18.0 SE 8 11 1010.0 - 0.0 - - - - - - -
27/03:30pm 18.6 SSE 10 12 1010.4 - 0.0 - - - - - - -
27/03:00pm 19.9 SE 9 12 1010.5 - 0.0 - - - - - - -
27/02:30pm 19.5 SE 7 10 1010.7 - 0.0 - - - - - - -
27/02:00pm 19.7 SE 9 11 1011.0 - 0.0 - - - - - - -
27/01:30pm 19.0 SSE 10 12 1011.7 - 0.0 - - - - - - -
27/01:00pm 19.5 SSE 9 11 1012.1 - 0.0 - - - - - - -
27/12:30pm 19.8 SSE 9 11 1012.2 - 0.0 - - - - - - -
27/12:00pm 19.3 SE 6 9 1011.9 - 0.0 - - - - - - -
27/11:30am 17.6 ESE 7 10 1011.9 - 0.0 - - - - - - -
27/11:00am 18.1 SE 7 9 1012.1 - 0.0 - - - - - - -
27/10:30am 18.2 SSE 7 9 1012.5 - 0.0 - - - - - - -
27/10:00am 19.9 ESE 6 7 1012.1 - 0.0 - - - - - - -
27/09:30am 18.9 ESE 5 7 1011.8 - 0.0 - - - - - - -
27/09:00am 19.0 ESE 4 5 1012.0 - 0.0 - - - - - - -
27/08:30am 17.7 ESE 4 5 1011.6 - 0.0 - - - - - - -
27/08:00am 17.0 ESE 5 6 1011.3 - 0.0 - - - - - - -
27/07:30am 15.9 E 5 6 1011.2 - 0.0 - - - - - - -
27/07:00am 14.9 SSE 4 7 1011.3 - 0.0 - - - - - - -
27/06:30am 15.2 SE 6 8 1010.6 - 0.0 - - - - - - -
27/06:00am 15.3 SE 7 11 1010.4 - 0.0 - - - - - - -
27/05:30am 15.4 SSE 8 10 1010.5 - 0.0 - - - - - - -
27/05:00am 15.5 SE 9 11 1010.3 - 0.0 - - - - - - -
27/04:30am 15.7 SSE 7 10 1010.8 - 0.0 - - - - - - -
27/04:00am 15.9 SSE 7 8 1010.9 - 0.0 - - - - - - -
27/03:30am 16.0 SE 6 8 1010.8 - 0.0 - - - - - - -
27/03:00am 16.3 ESE 6 9 1010.6 - 0.0 - - - - - - -
27/02:30am 16.3 SE 8 11 1010.8 - 0.0 - - - - - - -
27/02:00am 16.5 SE 8 11 1011.3 - 0.0 - - - - - - -
27/01:30am 16.7 ESE 5 7 1011.7 - 0.0 - - - - - - -
27/01:00am 16.6 SE 5 6 1012.0 - 0.0 - - - - - - -
27/12:30am 16.5 ESE 4 6 1012.0 - 0.0 - - - - - - -
27/12:00am 16.6 SE 5 7 1012.3 - 0.0 - - - - - - -
 
Date/Time
CDT
Temp

°C
Wind Pressure Rain
since 9am
mm
Weather Cloud Vis
km
Sea
Height
m
Swell
Dir
 
Speed
knots
Gust
knots
hPa Trend Height
m
Period
s
Dir
26/11:30pm 16.7 SE 6 8 1012.3 - 0.0 - - - - - - -
26/11:00pm 16.7 SSE 9 11 1012.1 - 0.0 - - - - - - -
26/10:30pm 17.1 SSE 8 10 1012.4 - 0.0 - - - - - - -
26/10:00pm 17.0 SSE 8 11 1012.3 - 0.0 - - - - - - -
26/09:30pm 17.0 SSE 10 13 1012.1 - 0.0 - - - - - - -
26/09:00pm 17.0 SSE 10 13 1011.7 - 0.0 - - - - - - -
26/08:30pm 17.5 S 11 14 1011.6 - 0.0 - - - - - - -
26/08:00pm 18.0 W 8 11 1011.6 - 0.0 - - - - - - -
26/07:30pm 18.1 NW 6 9 1011.3 - 0.0 - - - - - - -
26/07:00pm 18.0 W 10 12 1011.0 - 0.0 - - - - - - -
26/06:30pm 18.2 W 8 11 1010.8 - 0.0 - - - - - - -
26/06:00pm 18.0 W 11 14 1010.7 - 0.0 - - - - - - -
26/05:30pm 18.4 W 8 12 1010.6 - 0.0 - - - - - - -
26/05:00pm 18.4 W 8 13 1010.6 - 0.0 - - - - - - -
26/04:30pm 18.6 W 9 15 1010.7 - 0.0 - - - - - - -
26/04:00pm 18.6 W 10 13 1010.8 - 0.0 - - - - - - -
26/03:30pm 18.9 W 10 14 1010.9 - 0.0 - - - - - - -
26/03:00pm 20.1 W 8 11 1011.1 - 0.0 - - - - - - -

Other Formats:

Comma delimited format used in spreadsheet applications
http://www.bom.gov.au/fwo/IDS60701/IDS60701.94826.axf

JavaScript Object Notation format (JSON) in row-major order
http://www.bom.gov.au/fwo/IDS60701/IDS60701.94826.json